PWSweather.com
Personal Weather Stations
Station Observations
KENNFORD1
ExeterGB

ExeterGB

Lat: 50.6632, Lon: -3.5365

Elevation: 164

Station Type: Davis Vantage Vue

Latest ConditionsUpdated 1:30:20 PM GMT Tuesday, Nov 12, 2019
Currently Today's Max Today's Min Today's Average
Temperature 48.2°F9.0°C 49.2°F9.6°C 38.3°F3.5°C 42.7°F5.9°C
Dew Point 39.0°F3.9°C 40.0°F4.4°C 35.0°F1.7°C 37.0°F2.8°C
Winds 2.0 mph W3.2 kmh W 11.0 mph -17.7 kmh - - 1.7 mph 2.7 kmh
Wind Gusts 12.0 mph19.3 kmh 17.0 mph27.4 kmh - -
Humidity 70% 88% 65% 80%
Pressure 29.57 in1001.4 mb 29.64 in1003.7 mb 29.57 in1001.4 mb -
Precipitation - 0.16 in4.1 mm - -
Hour Temp Dew Point Humidity Winds Wind Gusts Pressure Precip Precip Rate Daily Precip Total
01:30 PM 48.2°F9.0°C 39.0°F3.9°C 70% 2.0 mph W3.2 kmh W 12.0 mph19.3 kmh 29.57 in1001.4 mb 0.00 in0.0 mm 0.00 in0.0 mm 0.16 in4.1 mm
01:25 PM 48.4°F9.1°C 39.0°F3.9°C 69% 3.0 mph SSW4.8 kmh SSW 13.0 mph20.9 kmh 29.57 in1001.4 mb 0.00 in0.0 mm 0.00 in0.0 mm 0.16 in4.1 mm
01:20 PM 48.5°F9.2°C 39.0°F3.9°C 69% 1.0 mph NE1.6 kmh NE 17.0 mph27.4 kmh 29.57 in1001.4 mb 0.00 in0.0 mm 0.00 in0.0 mm 0.16 in4.1 mm
01:15 PM 48.5°F9.2°C 39.0°F3.9°C 70% 1.0 mph NW1.6 kmh NW 17.0 mph27.4 kmh 29.57 in1001.4 mb 0.00 in0.0 mm 0.00 in0.0 mm 0.16 in4.1 mm
01:10 PM 48.5°F9.2°C 39.0°F3.9°C 69% 2.0 mph NNW3.2 kmh NNW 10.0 mph16.1 kmh 29.57 in1001.4 mb 0.00 in0.0 mm 0.00 in0.0 mm 0.16 in4.1 mm
01:05 PM 48.6°F9.2°C 39.0°F3.9°C 69% 4.0 mph SSE6.4 kmh SSE 14.0 mph22.5 kmh 29.57 in1001.4 mb 0.00 in0.0 mm 0.00 in0.0 mm 0.16 in4.1 mm
01:00 PM 48.5°F9.2°C 38.0°F3.3°C 68% 2.0 mph S3.2 kmh S 14.0 mph22.5 kmh 29.57 in1001.4 mb 0.00 in0.0 mm 0.00 in0.0 mm 0.16 in4.1 mm
12:55 PM 48.5°F9.2°C 38.0°F3.3°C 68% 4.0 mph W6.4 kmh W 14.0 mph22.5 kmh 29.57 in1001.4 mb 0.00 in0.0 mm 0.00 in0.0 mm 0.16 in4.1 mm
12:50 PM 48.5°F9.2°C 38.0°F3.3°C 68% 5.0 mph NW8.0 kmh NW 14.0 mph22.5 kmh 29.57 in1001.4 mb 0.00 in0.0 mm 0.00 in0.0 mm 0.16 in4.1 mm
12:45 PM 48.6°F9.2°C 38.0°F3.3°C 68% 1.0 mph WNW1.6 kmh WNW 13.0 mph20.9 kmh 29.57 in1001.4 mb 0.00 in0.0 mm 0.00 in0.0 mm 0.16 in4.1 mm
12:40 PM 48.6°F9.2°C 38.0°F3.3°C 66% 10.0 mph W16.1 kmh W 13.0 mph20.9 kmh 29.57 in1001.4 mb 0.00 in0.0 mm 0.00 in0.0 mm 0.16 in4.1 mm
12:35 PM 48.7°F9.3°C 38.0°F3.3°C 66% 1.0 mph WSW1.6 kmh WSW 15.0 mph24.1 kmh 29.57 in1001.4 mb 0.00 in0.0 mm 0.00 in0.0 mm 0.16 in4.1 mm
12:30 PM 49.2°F9.6°C 38.0°F3.3°C 65% 11.0 mph W17.7 kmh W 15.0 mph24.1 kmh 29.57 in1001.4 mb 0.00 in0.0 mm 0.00 in0.0 mm 0.16 in4.1 mm
12:25 PM 49.2°F9.6°C 38.0°F3.3°C 66% 7.0 mph NNW11.3 kmh NNW 16.0 mph25.7 kmh 29.57 in1001.4 mb 0.00 in0.0 mm 0.00 in0.0 mm 0.16 in4.1 mm
12:20 PM 49.1°F9.5°C 38.0°F3.3°C 66% 2.0 mph WSW3.2 kmh WSW 16.0 mph25.7 kmh 29.57 in1001.4 mb 0.00 in0.0 mm 0.00 in0.0 mm 0.16 in4.1 mm
12:15 PM 49.0°F9.4°C 38.0°F3.3°C 66% 3.0 mph ENE4.8 kmh ENE 13.0 mph20.9 kmh 29.57 in1001.4 mb 0.00 in0.0 mm 0.00 in0.0 mm 0.16 in4.1 mm
12:10 PM 49.1°F9.5°C 38.0°F3.3°C 66% 2.0 mph NNE3.2 kmh NNE 14.0 mph22.5 kmh 29.57 in1001.4 mb 0.00 in0.0 mm 0.00 in0.0 mm 0.16 in4.1 mm
12:05 PM 49.1°F9.5°C 38.0°F3.3°C 66% 6.0 mph WSW9.7 kmh WSW 14.0 mph22.5 kmh 29.57 in1001.4 mb 0.00 in0.0 mm 0.00 in0.0 mm 0.16 in4.1 mm
12:00 PM 48.8°F9.3°C 39.0°F3.9°C 69% Calm Calm 10.0 mph16.1 kmh 29.58 in1001.7 mb 0.00 in0.0 mm 0.00 in0.0 mm 0.16 in4.1 mm
11:55 AM 48.6°F9.2°C 39.0°F3.9°C 69% 2.0 mph E3.2 kmh E 16.0 mph25.7 kmh 29.58 in1001.7 mb 0.00 in0.0 mm 0.00 in0.0 mm 0.16 in4.1 mm
11:50 AM 48.4°F9.1°C 38.0°F3.3°C 68% 4.0 mph NE6.4 kmh NE 16.0 mph25.7 kmh 29.58 in1001.7 mb 0.00 in0.0 mm 0.00 in0.0 mm 0.16 in4.1 mm
11:45 AM 48.8°F9.3°C 39.0°F3.9°C 69% 5.0 mph N8.0 kmh N 17.0 mph27.4 kmh 29.58 in1001.7 mb 0.00 in0.0 mm 0.00 in0.0 mm 0.16 in4.1 mm
11:40 AM 48.8°F9.3°C 39.0°F3.9°C 69% 4.0 mph ESE6.4 kmh ESE 12.0 mph19.3 kmh 29.58 in1001.7 mb 0.00 in0.0 mm 0.00 in0.0 mm 0.16 in4.1 mm
11:35 AM 48.7°F9.3°C 40.0°F4.4°C 71% 2.0 mph W3.2 kmh W 15.0 mph24.1 kmh 29.59 in1002.0 mb 0.00 in0.0 mm 0.00 in0.0 mm 0.16 in4.1 mm
11:30 AM 48.6°F9.2°C 39.0°F3.9°C 70% 9.0 mph NW14.5 kmh NW 15.0 mph24.1 kmh 29.59 in1002.0 mb 0.00 in0.0 mm 0.00 in0.0 mm 0.16 in4.1 mm
11:25 AM 48.4°F9.1°C 39.0°F3.9°C 70% 7.0 mph NW11.3 kmh NW 12.0 mph19.3 kmh 29.59 in1002.0 mb 0.00 in0.0 mm 0.00 in0.0 mm 0.16 in4.1 mm
11:20 AM 48.1°F8.9°C 39.0°F3.9°C 70% 1.0 mph WSW1.6 kmh WSW 10.0 mph16.1 kmh 29.59 in1002.0 mb 0.00 in0.0 mm 0.00 in0.0 mm 0.16 in4.1 mm
11:15 AM 48.3°F9.1°C 39.0°F3.9°C 70% 1.0 mph SW1.6 kmh SW 10.0 mph16.1 kmh 29.59 in1002.0 mb 0.00 in0.0 mm 0.00 in0.0 mm 0.16 in4.1 mm
11:10 AM 48.3°F9.1°C 39.0°F3.9°C 70% 3.0 mph WSW4.8 kmh WSW 13.0 mph20.9 kmh 29.59 in1002.0 mb 0.00 in0.0 mm 0.00 in0.0 mm 0.16 in4.1 mm
11:05 AM 48.0°F8.9°C 39.0°F3.9°C 71% 2.0 mph WSW3.2 kmh WSW 13.0 mph20.9 kmh 29.59 in1002.0 mb 0.00 in0.0 mm 0.00 in0.0 mm 0.16 in4.1 mm
11:00 AM 47.9°F8.8°C 39.0°F3.9°C 71% 4.0 mph NNW6.4 kmh NNW 9.0 mph14.5 kmh 29.58 in1001.7 mb 0.00 in0.0 mm 0.00 in0.0 mm 0.16 in4.1 mm
10:55 AM 47.9°F8.8°C 39.0°F3.9°C 72% 4.0 mph ESE6.4 kmh ESE 11.0 mph17.7 kmh 29.58 in1001.7 mb 0.00 in0.0 mm 0.00 in0.0 mm 0.16 in4.1 mm
10:50 AM 47.6°F8.7°C 39.0°F3.9°C 72% 6.0 mph WSW9.7 kmh WSW 11.0 mph17.7 kmh 29.59 in1002.0 mb 0.00 in0.0 mm 0.00 in0.0 mm 0.16 in4.1 mm
10:45 AM 47.5°F8.6°C 39.0°F3.9°C 71% 5.0 mph WSW8.0 kmh WSW 11.0 mph17.7 kmh 29.59 in1002.0 mb 0.00 in0.0 mm 0.00 in0.0 mm 0.16 in4.1 mm
10:40 AM 47.4°F8.6°C 39.0°F3.9°C 72% 5.0 mph WSW8.0 kmh WSW 11.0 mph17.7 kmh 29.59 in1002.0 mb 0.00 in0.0 mm 0.00 in0.0 mm 0.16 in4.1 mm
10:35 AM 47.3°F8.5°C 39.0°F3.9°C 73% 1.0 mph SW1.6 kmh SW 10.0 mph16.1 kmh 29.60 in1002.4 mb 0.00 in0.0 mm 0.00 in0.0 mm 0.16 in4.1 mm
10:30 AM 47.0°F8.3°C 38.0°F3.3°C 72% 6.0 mph NNW9.7 kmh NNW 11.0 mph17.7 kmh 29.60 in1002.4 mb 0.00 in0.0 mm 0.00 in0.0 mm 0.16 in4.1 mm
10:25 AM 46.9°F8.3°C 39.0°F3.9°C 74% 6.0 mph WSW9.7 kmh WSW 13.0 mph20.9 kmh 29.59 in1002.0 mb 0.00 in0.0 mm 0.00 in0.0 mm 0.16 in4.1 mm
10:20 AM 46.7°F8.2°C 39.0°F3.9°C 74% 3.0 mph WNW4.8 kmh WNW 13.0 mph20.9 kmh 29.60 in1002.4 mb 0.00 in0.0 mm 0.00 in0.0 mm 0.16 in4.1 mm
10:15 AM 46.6°F8.1°C 39.0°F3.9°C 74% 2.0 mph SSE3.2 kmh SSE 13.0 mph20.9 kmh 29.60 in1002.4 mb 0.00 in0.0 mm 0.00 in0.0 mm 0.16 in4.1 mm
10:10 AM 46.6°F8.1°C 39.0°F3.9°C 75% 5.0 mph WSW8.0 kmh WSW 8.0 mph12.9 kmh 29.60 in1002.4 mb 0.00 in0.0 mm 0.00 in0.0 mm 0.16 in4.1 mm
10:05 AM 46.4°F8.0°C 39.0°F3.9°C 76% 2.0 mph ENE3.2 kmh ENE 8.0 mph12.9 kmh 29.60 in1002.4 mb 0.00 in0.0 mm 0.00 in0.0 mm 0.16 in4.1 mm
10:00 AM 46.1°F7.8°C 39.0°F3.9°C 77% 1.0 mph W1.6 kmh W 8.0 mph12.9 kmh 29.60 in1002.4 mb 0.00 in0.0 mm 0.00 in0.0 mm 0.16 in4.1 mm
09:55 AM 45.8°F7.7°C 39.0°F3.9°C 77% 1.0 mph WNW1.6 kmh WNW 12.0 mph19.3 kmh 29.60 in1002.4 mb 0.00 in0.0 mm 0.00 in0.0 mm 0.16 in4.1 mm
09:50 AM 45.6°F7.6°C 38.0°F3.3°C 76% 5.0 mph WSW8.0 kmh WSW 9.0 mph14.5 kmh 29.61 in1002.7 mb 0.00 in0.0 mm 0.00 in0.0 mm 0.16 in4.1 mm
09:45 AM 45.9°F7.7°C 39.0°F3.9°C 78% 9.0 mph SW14.5 kmh SW 9.0 mph14.5 kmh 29.61 in1002.7 mb 0.02 in0.5 mm 0.00 in0.0 mm 0.16 in4.1 mm
09:40 AM 45.4°F7.4°C 39.0°F3.9°C 79% 1.0 mph S1.6 kmh S 9.0 mph14.5 kmh 29.61 in1002.7 mb 0.06 in1.5 mm 0.00 in0.0 mm 0.16 in4.1 mm
09:35 AM 44.6°F7.0°C 39.0°F3.9°C 80% 1.0 mph NW1.6 kmh NW 7.0 mph11.3 kmh 29.61 in1002.7 mb 0.06 in1.5 mm 0.00 in0.0 mm 0.16 in4.1 mm
09:30 AM 44.0°F6.7°C 39.0°F3.9°C 81% 3.0 mph W4.8 kmh W 7.0 mph11.3 kmh 29.61 in1002.7 mb 0.06 in1.5 mm 0.00 in0.0 mm 0.16 in4.1 mm
09:25 AM 43.5°F6.4°C 39.0°F3.9°C 83% 2.0 mph WSW3.2 kmh WSW 5.0 mph8.0 kmh 29.61 in1002.7 mb 0.06 in1.5 mm 0.00 in0.0 mm 0.16 in4.1 mm
09:20 AM 43.0°F6.1°C 39.0°F3.9°C 84% 2.0 mph W3.2 kmh W 4.0 mph6.4 kmh 29.61 in1002.7 mb 0.06 in1.5 mm 0.00 in0.0 mm 0.16 in4.1 mm
09:15 AM 42.4°F5.8°C 39.0°F3.9°C 86% Calm Calm 4.0 mph6.4 kmh 29.61 in1002.7 mb 0.06 in1.5 mm 0.00 in0.0 mm 0.16 in4.1 mm
09:10 AM 41.6°F5.3°C 38.0°F3.3°C 87% Calm Calm 4.0 mph6.4 kmh 29.61 in1002.7 mb 0.06 in1.5 mm 0.00 in0.0 mm 0.16 in4.1 mm
09:05 AM 40.6°F4.8°C 37.0°F2.8°C 87% Calm Calm 3.0 mph4.8 kmh 29.61 in1002.7 mb 0.06 in1.5 mm 0.00 in0.0 mm 0.16 in4.1 mm
09:00 AM 40.1°F4.5°C 36.0°F2.2°C 85% Calm Calm 4.0 mph6.4 kmh 29.61 in1002.7 mb 0.06 in1.5 mm 0.00 in0.0 mm 0.16 in4.1 mm
08:55 AM 40.3°F4.6°C 36.0°F2.2°C 84% Calm Calm 8.0 mph12.9 kmh 29.61 in1002.7 mb 0.06 in1.5 mm 0.00 in0.0 mm 0.16 in4.1 mm
08:50 AM 40.7°F4.8°C 36.0°F2.2°C 83% 1.0 mph E1.6 kmh E 14.0 mph22.5 kmh 29.61 in1002.7 mb 0.06 in1.5 mm 0.24 in6.1 mm 0.15 in3.8 mm
08:45 AM 41.9°F5.5°C 37.0°F2.8°C 81% 2.0 mph E3.2 kmh E 14.0 mph22.5 kmh 29.61 in1002.7 mb 0.04 in1.0 mm 0.48 in12.2 mm 0.13 in3.3 mm
08:40 AM 42.5°F5.8°C 38.0°F3.3°C 84% 1.0 mph SSE1.6 kmh SSE 6.0 mph9.7 kmh 29.63 in1003.4 mb 0.00 in0.0 mm 0.00 in0.0 mm 0.09 in2.3 mm
08:35 AM 41.9°F5.5°C 37.0°F2.8°C 84% 5.0 mph SW8.0 kmh SW 6.0 mph9.7 kmh 29.61 in1002.7 mb 0.00 in0.0 mm 0.00 in0.0 mm 0.09 in2.3 mm
08:30 AM 41.0°F5.0°C 37.0°F2.8°C 85% 2.0 mph N3.2 kmh N 3.0 mph4.8 kmh 29.61 in1002.7 mb 0.00 in0.0 mm 0.00 in0.0 mm 0.09 in2.3 mm
08:25 AM 40.1°F4.5°C 37.0°F2.8°C 87% Calm Calm 4.0 mph6.4 kmh 29.61 in1002.7 mb 0.00 in0.0 mm 0.00 in0.0 mm 0.09 in2.3 mm
08:20 AM 39.5°F4.2°C 36.0°F2.2°C 87% 1.0 mph WSW1.6 kmh WSW 4.0 mph6.4 kmh 29.61 in1002.7 mb 0.00 in0.0 mm 0.00 in0.0 mm 0.09 in2.3 mm
08:15 AM 39.0°F3.9°C 36.0°F2.2°C 87% 1.0 mph NNE1.6 kmh NNE 2.0 mph3.2 kmh 29.61 in1002.7 mb 0.00 in0.0 mm 0.00 in0.0 mm 0.09 in2.3 mm
08:10 AM 38.9°F3.8°C 35.0°F1.7°C 87% Calm Calm 1.0 mph1.6 kmh 29.61 in1002.7 mb 0.00 in0.0 mm 0.00 in0.0 mm 0.09 in2.3 mm
08:05 AM 39.0°F3.9°C 36.0°F2.2°C 87% Calm Calm 1.0 mph1.6 kmh 29.61 in1002.7 mb 0.00 in0.0 mm 0.00 in0.0 mm 0.09 in2.3 mm
08:00 AM 39.2°F4.0°C 36.0°F2.2°C 87% Calm Calm 1.0 mph1.6 kmh 29.62 in1003.0 mb 0.00 in0.0 mm 0.00 in0.0 mm 0.09 in2.3 mm
07:55 AM 39.4°F4.1°C 36.0°F2.2°C 87% Calm Calm 1.0 mph1.6 kmh 29.62 in1003.0 mb 0.00 in0.0 mm 0.00 in0.0 mm 0.09 in2.3 mm
07:50 AM 39.4°F4.1°C 36.0°F2.2°C 87% Calm Calm 1.0 mph1.6 kmh 29.62 in1003.0 mb 0.00 in0.0 mm 0.00 in0.0 mm 0.09 in2.3 mm
07:45 AM 39.4°F4.1°C 36.0°F2.2°C 86% Calm Calm 1.0 mph1.6 kmh 29.63 in1003.4 mb 0.01 in0.3 mm 0.00 in0.0 mm 0.09 in2.3 mm
07:40 AM 39.5°F4.2°C 36.0°F2.2°C 86% Calm Calm 3.0 mph4.8 kmh 29.62 in1003.0 mb 0.01 in0.3 mm 0.00 in0.0 mm 0.09 in2.3 mm
07:35 AM 39.5°F4.2°C 36.0°F2.2°C 86% Calm Calm 4.0 mph6.4 kmh 29.62 in1003.0 mb 0.01 in0.3 mm 0.00 in0.0 mm 0.09 in2.3 mm
07:30 AM 39.3°F4.1°C 35.0°F1.7°C 85% 1.0 mph WSW1.6 kmh WSW 5.0 mph8.0 kmh 29.62 in1003.0 mb 0.01 in0.3 mm 0.00 in0.0 mm 0.09 in2.3 mm
07:25 AM 39.4°F4.1°C 35.0°F1.7°C 85% 3.0 mph W4.8 kmh W 5.0 mph8.0 kmh 29.61 in1002.7 mb 0.01 in0.3 mm 0.00 in0.0 mm 0.09 in2.3 mm
07:20 AM 39.5°F4.2°C 35.0°F1.7°C 84% 1.0 mph W1.6 kmh W 7.0 mph11.3 kmh 29.61 in1002.7 mb 0.02 in0.5 mm 0.00 in0.0 mm 0.09 in2.3 mm
07:15 AM 39.5°F4.2°C 35.0°F1.7°C 84% 3.0 mph WSW4.8 kmh WSW 9.0 mph14.5 kmh 29.61 in1002.7 mb 0.02 in0.5 mm 0.00 in0.0 mm 0.09 in2.3 mm
07:10 AM 39.5°F4.2°C 35.0°F1.7°C 84% 2.0 mph SW3.2 kmh SW 14.0 mph22.5 kmh 29.61 in1002.7 mb 0.02 in0.5 mm 0.00 in0.0 mm 0.09 in2.3 mm
07:05 AM 39.6°F4.2°C 35.0°F1.7°C 84% 2.0 mph SW3.2 kmh SW 14.0 mph22.5 kmh 29.61 in1002.7 mb 0.02 in0.5 mm 0.00 in0.0 mm 0.09 in2.3 mm
07:00 AM 39.5°F4.2°C 35.0°F1.7°C 85% Calm Calm 9.0 mph14.5 kmh 29.61 in1002.7 mb 0.02 in0.5 mm 0.00 in0.0 mm 0.09 in2.3 mm
06:55 AM 39.5°F4.2°C 35.0°F1.7°C 85% 3.0 mph SW4.8 kmh SW 12.0 mph19.3 kmh 29.61 in1002.7 mb 0.02 in0.5 mm 0.00 in0.0 mm 0.09 in2.3 mm
06:50 AM 39.7°F4.3°C 36.0°F2.2°C 85% 3.0 mph N4.8 kmh N 14.0 mph22.5 kmh 29.61 in1002.7 mb 0.02 in0.5 mm 0.00 in0.0 mm 0.09 in2.3 mm
06:45 AM 39.7°F4.3°C 36.0°F2.2°C 86% 2.0 mph W3.2 kmh W 14.0 mph22.5 kmh 29.61 in1002.7 mb 0.02 in0.5 mm 0.00 in0.0 mm 0.09 in2.3 mm
06:40 AM 39.2°F4.0°C 36.0°F2.2°C 87% 2.0 mph NW3.2 kmh NW 13.0 mph20.9 kmh 29.61 in1002.7 mb 0.02 in0.5 mm 0.00 in0.0 mm 0.09 in2.3 mm
06:35 AM 39.0°F3.9°C 35.0°F1.7°C 86% 1.0 mph NW1.6 kmh NW 7.0 mph11.3 kmh 29.61 in1002.7 mb 0.02 in0.5 mm 0.00 in0.0 mm 0.09 in2.3 mm
06:30 AM 39.1°F3.9°C 36.0°F2.2°C 87% 2.0 mph E3.2 kmh E 10.0 mph16.1 kmh 29.61 in1002.7 mb 0.02 in0.5 mm 0.00 in0.0 mm 0.09 in2.3 mm
06:25 AM 39.0°F3.9°C 36.0°F2.2°C 87% 2.0 mph NW3.2 kmh NW 10.0 mph16.1 kmh 29.61 in1002.7 mb 0.02 in0.5 mm 0.12 in3.0 mm 0.09 in2.3 mm
06:20 AM 38.8°F3.8°C 36.0°F2.2°C 88% 2.0 mph W3.2 kmh W 6.0 mph9.7 kmh 29.63 in1003.4 mb 0.01 in0.3 mm 0.00 in0.0 mm 0.08 in2.0 mm
06:15 AM 38.7°F3.7°C 35.0°F1.7°C 87% 1.0 mph NE1.6 kmh NE 7.0 mph11.3 kmh 29.63 in1003.4 mb 0.01 in0.3 mm 0.00 in0.0 mm 0.08 in2.0 mm
06:10 AM 38.8°F3.8°C 35.0°F1.7°C 87% 3.0 mph SW4.8 kmh SW 7.0 mph11.3 kmh 29.62 in1003.0 mb 0.01 in0.3 mm 0.00 in0.0 mm 0.08 in2.0 mm
06:05 AM 38.9°F3.8°C 35.0°F1.7°C 87% 1.0 mph WSW1.6 kmh WSW 6.0 mph9.7 kmh 29.62 in1003.0 mb 0.01 in0.3 mm 0.00 in0.0 mm 0.08 in2.0 mm
06:00 AM 39.1°F3.9°C 36.0°F2.2°C 87% 2.0 mph W3.2 kmh W 3.0 mph4.8 kmh 29.63 in1003.4 mb 0.02 in0.5 mm 0.00 in0.0 mm 0.08 in2.0 mm
05:55 AM 39.3°F4.1°C 36.0°F2.2°C 87% Calm Calm 5.0 mph8.0 kmh 29.63 in1003.4 mb 0.03 in0.8 mm 0.00 in0.0 mm 0.08 in2.0 mm
05:50 AM 39.2°F4.0°C 36.0°F2.2°C 88% Calm Calm 7.0 mph11.3 kmh 29.64 in1003.7 mb 0.05 in1.3 mm 0.00 in0.0 mm 0.08 in2.0 mm
05:45 AM 38.6°F3.7°C 35.0°F1.7°C 88% 3.0 mph NE4.8 kmh NE 7.0 mph11.3 kmh 29.63 in1003.4 mb 0.05 in1.3 mm 0.00 in0.0 mm 0.07 in1.8 mm
05:40 AM 38.3°F3.5°C 35.0°F1.7°C 87% Calm Calm 4.0 mph6.4 kmh 29.63 in1003.4 mb 0.05 in1.3 mm 0.00 in0.0 mm 0.07 in1.8 mm
05:35 AM 38.5°F3.6°C 35.0°F1.7°C 86% Calm Calm 4.0 mph6.4 kmh 29.62 in1003.0 mb 0.05 in1.3 mm 0.00 in0.0 mm 0.07 in1.8 mm
05:30 AM 38.6°F3.7°C 35.0°F1.7°C 86% Calm Calm 3.0 mph4.8 kmh 29.61 in1002.7 mb 0.05 in1.3 mm 0.00 in0.0 mm 0.07 in1.8 mm
05:25 AM 38.8°F3.8°C 35.0°F1.7°C 85% Calm Calm 5.0 mph8.0 kmh 29.61 in1002.7 mb 0.05 in1.3 mm 0.00 in0.0 mm 0.07 in1.8 mm
05:20 AM 39.0°F3.9°C 35.0°F1.7°C 85% Calm Calm 5.0 mph8.0 kmh 29.61 in1002.7 mb 0.05 in1.3 mm 0.00 in0.0 mm 0.07 in1.8 mm
05:15 AM 39.1°F3.9°C 35.0°F1.7°C 85% 2.0 mph SW3.2 kmh SW 9.0 mph14.5 kmh 29.61 in1002.7 mb 0.05 in1.3 mm 0.00 in0.0 mm 0.07 in1.8 mm
05:10 AM 39.4°F4.1°C 35.0°F1.7°C 85% Calm Calm 9.0 mph14.5 kmh 29.62 in1003.0 mb 0.05 in1.3 mm 0.00 in0.0 mm 0.07 in1.8 mm
05:05 AM 39.7°F4.3°C 35.0°F1.7°C 84% 3.0 mph ENE4.8 kmh ENE 9.0 mph14.5 kmh 29.62 in1003.0 mb 0.05 in1.3 mm 0.12 in3.0 mm 0.07 in1.8 mm
05:00 AM 40.4°F4.7°C 36.0°F2.2°C 84% 1.0 mph NNE1.6 kmh NNE 9.0 mph14.5 kmh 29.63 in1003.4 mb 0.04 in1.0 mm 0.02 in0.5 mm 0.06 in1.5 mm
04:55 AM 41.1°F5.1°C 37.0°F2.8°C 84% 2.0 mph NNW3.2 kmh NNW 7.0 mph11.3 kmh 29.63 in1003.4 mb 0.02 in0.5 mm 0.12 in3.0 mm 0.04 in1.0 mm
04:50 AM 41.5°F5.3°C 37.0°F2.8°C 83% 4.0 mph W6.4 kmh W 5.0 mph8.0 kmh 29.63 in1003.4 mb 0.01 in0.3 mm 0.12 in3.0 mm 0.03 in0.8 mm
04:45 AM 41.5°F5.3°C 36.0°F2.2°C 82% Calm Calm 7.0 mph11.3 kmh 29.63 in1003.4 mb 0.00 in0.0 mm 0.00 in0.0 mm 0.02 in0.5 mm
04:40 AM 41.7°F5.4°C 36.0°F2.2°C 81% 1.0 mph SW1.6 kmh SW 9.0 mph14.5 kmh 29.62 in1003.0 mb 0.00 in0.0 mm 0.00 in0.0 mm 0.02 in0.5 mm
04:35 AM 42.0°F5.6°C 37.0°F2.8°C 81% Calm Calm 9.0 mph14.5 kmh 29.63 in1003.4 mb 0.01 in0.3 mm 0.00 in0.0 mm 0.02 in0.5 mm
04:30 AM 42.0°F5.6°C 37.0°F2.8°C 82% 2.0 mph NE3.2 kmh NE 9.0 mph14.5 kmh 29.62 in1003.0 mb 0.01 in0.3 mm 0.00 in0.0 mm 0.02 in0.5 mm
04:25 AM 41.8°F5.4°C 37.0°F2.8°C 82% Calm Calm 9.0 mph14.5 kmh 29.62 in1003.0 mb 0.01 in0.3 mm 0.00 in0.0 mm 0.02 in0.5 mm
04:20 AM 41.8°F5.4°C 37.0°F2.8°C 82% 4.0 mph WSW6.4 kmh WSW 5.0 mph8.0 kmh 29.62 in1003.0 mb 0.01 in0.3 mm 0.00 in0.0 mm 0.02 in0.5 mm
04:15 AM 41.9°F5.5°C 37.0°F2.8°C 82% Calm Calm 5.0 mph8.0 kmh 29.61 in1002.7 mb 0.01 in0.3 mm 0.00 in0.0 mm 0.02 in0.5 mm
04:10 AM 42.0°F5.6°C 37.0°F2.8°C 83% 1.0 mph NW1.6 kmh NW 8.0 mph12.9 kmh 29.61 in1002.7 mb 0.02 in0.5 mm 0.00 in0.0 mm 0.02 in0.5 mm
04:05 AM 42.0°F5.6°C 37.0°F2.8°C 83% 1.0 mph SSW1.6 kmh SSW 8.0 mph12.9 kmh 29.62 in1003.0 mb 0.02 in0.5 mm 0.00 in0.0 mm 0.02 in0.5 mm
04:00 AM 41.9°F5.5°C 37.0°F2.8°C 82% Calm Calm 7.0 mph11.3 kmh 29.62 in1003.0 mb 0.02 in0.5 mm 0.00 in0.0 mm 0.02 in0.5 mm
03:55 AM 41.8°F5.4°C 37.0°F2.8°C 83% 2.0 mph NW3.2 kmh NW 7.0 mph11.3 kmh 29.62 in1003.0 mb 0.02 in0.5 mm 0.00 in0.0 mm 0.02 in0.5 mm
03:50 AM 41.7°F5.4°C 37.0°F2.8°C 83% Calm Calm 9.0 mph14.5 kmh 29.62 in1003.0 mb 0.02 in0.5 mm 0.00 in0.0 mm 0.02 in0.5 mm
03:45 AM 41.6°F5.3°C 37.0°F2.8°C 84% 3.0 mph W4.8 kmh W 9.0 mph14.5 kmh 29.62 in1003.0 mb 0.02 in0.5 mm 0.00 in0.0 mm 0.02 in0.5 mm
03:40 AM 41.7°F5.4°C 37.0°F2.8°C 84% Calm Calm 3.0 mph4.8 kmh 29.63 in1003.4 mb 0.02 in0.5 mm 0.00 in0.0 mm 0.02 in0.5 mm
03:35 AM 41.7°F5.4°C 37.0°F2.8°C 84% Calm Calm 3.0 mph4.8 kmh 29.63 in1003.4 mb 0.02 in0.5 mm 0.00 in0.0 mm 0.02 in0.5 mm
03:30 AM 41.5°F5.3°C 37.0°F2.8°C 84% 2.0 mph SE3.2 kmh SE 2.0 mph3.2 kmh 29.63 in1003.4 mb 0.02 in0.5 mm 0.00 in0.0 mm 0.02 in0.5 mm
03:25 AM 41.6°F5.3°C 37.0°F2.8°C 84% Calm Calm 1.0 mph1.6 kmh 29.63 in1003.4 mb 0.02 in0.5 mm 0.00 in0.0 mm 0.02 in0.5 mm
03:20 AM 41.7°F5.4°C 37.0°F2.8°C 84% Calm Calm 3.0 mph4.8 kmh 29.63 in1003.4 mb 0.02 in0.5 mm 0.00 in0.0 mm 0.02 in0.5 mm
03:15 AM 41.9°F5.5°C 37.0°F2.8°C 83% 1.0 mph WSW1.6 kmh WSW 3.0 mph4.8 kmh 29.63 in1003.4 mb 0.02 in0.5 mm 0.12 in3.0 mm 0.02 in0.5 mm
03:10 AM 41.8°F5.4°C 37.0°F2.8°C 83% Calm Calm 4.0 mph6.4 kmh 29.63 in1003.4 mb 0.01 in0.3 mm 0.00 in0.0 mm 0.01 in0.3 mm
03:05 AM 41.4°F5.2°C 37.0°F2.8°C 83% Calm Calm 5.0 mph8.0 kmh 29.63 in1003.4 mb 0.01 in0.3 mm 0.00 in0.0 mm 0.01 in0.3 mm
03:00 AM 40.7°F4.8°C 36.0°F2.2°C 84% 2.0 mph W3.2 kmh W 5.0 mph8.0 kmh 29.63 in1003.4 mb 0.01 in0.3 mm 0.01 in0.3 mm 0.01 in0.3 mm
02:55 AM 40.7°F4.8°C 36.0°F2.2°C 83% Calm Calm 3.0 mph4.8 kmh 29.63 in1003.4 mb 0.00 in0.0 mm 0.00 in0.0 mm 0.01 in0.3 mm
02:50 AM 40.4°F4.7°C 36.0°F2.2°C 84% Calm Calm 5.0 mph8.0 kmh 29.63 in1003.4 mb 0.00 in0.0 mm 0.00 in0.0 mm 0.01 in0.3 mm
02:45 AM 40.1°F4.5°C 36.0°F2.2°C 85% Calm Calm 5.0 mph8.0 kmh 29.62 in1003.0 mb 0.00 in0.0 mm 0.00 in0.0 mm 0.01 in0.3 mm
02:40 AM 39.7°F4.3°C 36.0°F2.2°C 85% Calm Calm 3.0 mph4.8 kmh 29.62 in1003.0 mb 0.00 in0.0 mm 0.00 in0.0 mm 0.01 in0.3 mm
02:35 AM 39.3°F4.1°C 36.0°F2.2°C 87% Calm Calm 3.0 mph4.8 kmh 29.63 in1003.4 mb 0.00 in0.0 mm 0.00 in0.0 mm 0.01 in0.3 mm
02:30 AM 38.8°F3.8°C 35.0°F1.7°C 86% Calm Calm 1.0 mph1.6 kmh 29.63 in1003.4 mb 0.00 in0.0 mm 0.00 in0.0 mm 0.01 in0.3 mm
02:25 AM 38.8°F3.8°C 35.0°F1.7°C 87% Calm Calm 2.0 mph3.2 kmh 29.63 in1003.4 mb 0.00 in0.0 mm 0.00 in0.0 mm 0.01 in0.3 mm
02:20 AM 38.8°F3.8°C 35.0°F1.7°C 87% Calm Calm 2.0 mph3.2 kmh 29.63 in1003.4 mb 0.00 in0.0 mm 0.00 in0.0 mm 0.01 in0.3 mm
02:15 AM 38.8°F3.8°C 35.0°F1.7°C 87% Calm Calm 1.0 mph1.6 kmh 29.63 in1003.4 mb 0.00 in0.0 mm 0.00 in0.0 mm 0.01 in0.3 mm
02:10 AM 38.9°F3.8°C 35.0°F1.7°C 86% Calm Calm 1.0 mph1.6 kmh 29.63 in1003.4 mb 0.00 in0.0 mm 0.00 in0.0 mm 0.01 in0.3 mm
02:05 AM 39.3°F4.1°C 36.0°F2.2°C 86% Calm Calm 1.0 mph1.6 kmh 29.63 in1003.4 mb 0.00 in0.0 mm 0.00 in0.0 mm 0.01 in0.3 mm
02:00 AM 39.5°F4.2°C 36.0°F2.2°C 86% Calm Calm 1.0 mph1.6 kmh 29.64 in1003.7 mb 0.00 in0.0 mm 0.00 in0.0 mm 0.01 in0.3 mm
01:55 AM 39.9°F4.4°C 36.0°F2.2°C 85% Calm Calm 1.0 mph1.6 kmh 29.64 in1003.7 mb 0.00 in0.0 mm 0.00 in0.0 mm 0.01 in0.3 mm
01:50 AM 40.2°F4.6°C 36.0°F2.2°C 85% 1.0 mph WNW1.6 kmh WNW 1.0 mph1.6 kmh 29.64 in1003.7 mb 0.00 in0.0 mm 0.00 in0.0 mm 0.01 in0.3 mm
01:45 AM 40.5°F4.7°C 36.0°F2.2°C 84% Calm Calm 1.0 mph1.6 kmh 29.64 in1003.7 mb 0.00 in0.0 mm 0.00 in0.0 mm 0.01 in0.3 mm
01:40 AM 40.9°F4.9°C 36.0°F2.2°C 84% Calm Calm 1.0 mph1.6 kmh 29.64 in1003.7 mb 0.00 in0.0 mm 0.00 in0.0 mm 0.01 in0.3 mm
01:35 AM 41.3°F5.2°C 37.0°F2.8°C 83% Calm Calm 1.0 mph1.6 kmh 29.64 in1003.7 mb 0.00 in0.0 mm 0.00 in0.0 mm 0.01 in0.3 mm
01:30 AM 41.5°F5.3°C 37.0°F2.8°C 83% Calm Calm 1.0 mph1.6 kmh 29.64 in1003.7 mb 0.00 in0.0 mm 0.00 in0.0 mm 0.01 in0.3 mm
01:25 AM 41.6°F5.3°C 37.0°F2.8°C 82% Calm Calm 1.0 mph1.6 kmh 29.63 in1003.4 mb 0.00 in0.0 mm 0.00 in0.0 mm 0.01 in0.3 mm
01:20 AM 42.0°F5.6°C 37.0°F2.8°C 82% Calm Calm 1.0 mph1.6 kmh 29.64 in1003.7 mb 0.00 in0.0 mm 0.00 in0.0 mm 0.01 in0.3 mm
01:15 AM 42.3°F5.7°C 37.0°F2.8°C 82% Calm Calm 3.0 mph4.8 kmh 29.63 in1003.4 mb 0.00 in0.0 mm 0.00 in0.0 mm 0.01 in0.3 mm
01:10 AM 42.3°F5.7°C 37.0°F2.8°C 82% Calm Calm 4.0 mph6.4 kmh 29.64 in1003.7 mb 0.00 in0.0 mm 0.00 in0.0 mm 0.01 in0.3 mm
01:05 AM 42.2°F5.7°C 37.0°F2.8°C 82% Calm Calm 3.0 mph4.8 kmh 29.64 in1003.7 mb 0.00 in0.0 mm 0.00 in0.0 mm 0.01 in0.3 mm
01:00 AM 42.1°F5.6°C 37.0°F2.8°C 82% 1.0 mph SW1.6 kmh SW 3.0 mph4.8 kmh 29.64 in1003.7 mb 0.00 in0.0 mm 0.00 in0.0 mm 0.01 in0.3 mm
12:55 AM 42.1°F5.6°C 37.0°F2.8°C 82% Calm Calm 4.0 mph6.4 kmh 29.64 in1003.7 mb 0.00 in0.0 mm 0.00 in0.0 mm 0.01 in0.3 mm
12:50 AM 42.0°F5.6°C 37.0°F2.8°C 81% 1.0 mph NE1.6 kmh NE 5.0 mph8.0 kmh 29.64 in1003.7 mb 0.00 in0.0 mm 0.00 in0.0 mm 0.01 in0.3 mm
12:45 AM 42.0°F5.6°C 37.0°F2.8°C 81% Calm Calm 5.0 mph8.0 kmh 29.64 in1003.7 mb 0.00 in0.0 mm 0.00 in0.0 mm 0.01 in0.3 mm
12:40 AM 42.1°F5.6°C 36.0°F2.2°C 80% Calm Calm 5.0 mph8.0 kmh 29.64 in1003.7 mb 0.00 in0.0 mm 0.00 in0.0 mm 0.01 in0.3 mm
12:35 AM 42.2°F5.7°C 36.0°F2.2°C 80% Calm Calm 5.0 mph8.0 kmh 29.63 in1003.4 mb 0.00 in0.0 mm 0.00 in0.0 mm 0.01 in0.3 mm
12:30 AM 42.4°F5.8°C 36.0°F2.2°C 79% Calm Calm 5.0 mph8.0 kmh 29.64 in1003.7 mb 0.00 in0.0 mm 0.00 in0.0 mm 0.01 in0.3 mm
12:25 AM 42.5°F5.8°C 36.0°F2.2°C 79% 2.0 mph NW3.2 kmh NW 7.0 mph11.3 kmh 29.64 in1003.7 mb 0.00 in0.0 mm 0.00 in0.0 mm 0.01 in0.3 mm
12:20 AM 42.4°F5.8°C 37.0°F2.8°C 80% 2.0 mph SW3.2 kmh SW 7.0 mph11.3 kmh 29.64 in1003.7 mb 0.00 in0.0 mm 0.00 in0.0 mm 0.01 in0.3 mm
12:15 AM 42.4°F5.8°C 37.0°F2.8°C 80% 6.0 mph WSW9.7 kmh WSW 8.0 mph12.9 kmh 29.64 in1003.7 mb 0.01 in0.3 mm 0.00 in0.0 mm 0.01 in0.3 mm
12:10 AM 42.4°F5.8°C 36.0°F2.2°C 79% 1.0 mph WSW1.6 kmh WSW 5.0 mph8.0 kmh 29.64 in1003.7 mb 0.01 in0.3 mm 0.00 in0.0 mm 0.01 in0.3 mm
12:05 AM 42.4°F5.8°C 36.0°F2.2°C 79% 1.0 mph SSE1.6 kmh SSE 10.0 mph16.1 kmh 29.64 in1003.7 mb 0.01 in0.3 mm 0.00 in0.0 mm 0.01 in0.3 mm
12:00 AM 42.4°F5.8°C 37.0°F2.8°C 80% 2.0 mph SW3.2 kmh SW 10.0 mph16.1 kmh 29.64 in1003.7 mb 0.01 in0.3 mm 0.00 in0.0 mm 0.01 in0.3 mm